createdAt,value
2023-05-21T00:00:28.051Z,1102.73
2023-05-21T00:01:28.031Z,1102.73
2023-05-21T00:02:28.044Z,1102.73
2023-05-21T00:03:28.082Z,1102.73
2023-05-21T00:04:28.040Z,1102.73
2023-05-21T00:05:27.982Z,1102.73
2023-05-21T00:06:28.101Z,1102.73
2023-05-21T00:07:30.955Z,1102.73
2023-05-21T00:08:30.957Z,1102.73
2023-05-21T00:09:27.925Z,1102.73
2023-05-21T00:10:27.940Z,1102.73
2023-05-21T00:11:27.887Z,1102.73
2023-05-21T00:12:27.875Z,1102.73
2023-05-21T00:13:27.873Z,1102.73
2023-05-21T00:14:27.874Z,1102.73
2023-05-21T00:15:27.838Z,1102.73
2023-05-21T00:16:28.023Z,1102.73
2023-05-21T00:17:27.835Z,1102.73
2023-05-21T00:18:27.790Z,1102.73
2023-05-21T00:19:27.847Z,1102.73
2023-05-21T00:20:27.802Z,1102.73
2023-05-21T00:21:27.784Z,1102.73
2023-05-21T00:22:27.740Z,1102.73
2023-05-21T00:23:27.728Z,1102.73
2023-05-21T00:24:27.705Z,1102.73
2023-05-21T00:25:27.698Z,1102.73
2023-05-21T00:26:27.710Z,1102.73
2023-05-21T00:27:30.693Z,1102.73
2023-05-21T00:28:30.659Z,1102.73
2023-05-21T00:29:27.671Z,1102.73
2023-05-21T00:30:27.632Z,1102.73
2023-05-21T00:31:27.716Z,1102.73
2023-05-21T00:32:27.628Z,1102.73
2023-05-21T00:33:27.589Z,1102.73
2023-05-21T00:34:27.576Z,1102.73
2023-05-21T00:35:27.560Z,1102.73
2023-05-21T00:36:27.546Z,1102.73
2023-05-21T00:37:27.562Z,1102.73
2023-05-21T00:38:27.521Z,1102.73
2023-05-21T00:39:27.576Z,1102.73
2023-05-21T00:40:27.492Z,1102.73
2023-05-21T00:41:27.487Z,1102.73
2023-05-21T00:42:27.481Z,1102.73
2023-05-21T00:43:27.456Z,1102.73
2023-05-21T00:44:27.443Z,1102.73
2023-05-21T00:45:27.481Z,1102.73
2023-05-21T00:46:27.502Z,1102.73
2023-05-21T00:47:30.408Z,1102.73
2023-05-21T00:48:30.380Z,1102.73
2023-05-21T00:49:27.365Z,1102.73
2023-05-21T00:50:27.361Z,1102.73
2023-05-21T00:51:27.380Z,1102.73
2023-05-21T00:52:27.333Z,1102.73
2023-05-21T00:53:27.313Z,1102.73
2023-05-21T00:54:27.300Z,1102.73
2023-05-21T00:55:27.289Z,1102.73
2023-05-21T00:56:27.278Z,1102.73
2023-05-21T00:57:27.322Z,1102.73
2023-05-21T00:58:27.244Z,1102.73
2023-05-21T00:59:27.277Z,1102.73
2023-05-21T01:00:27.219Z,1102.73
2023-05-21T01:01:27.324Z,1102.73
2023-05-21T01:02:27.253Z,1102.73
2023-05-21T01:03:27.324Z,1102.73
2023-05-21T01:04:27.169Z,1102.73
2023-05-21T01:05:27.183Z,1102.73
2023-05-21T01:06:27.137Z,1102.73
2023-05-21T01:07:30.126Z,1102.73
2023-05-21T01:08:30.105Z,1102.73
2023-05-21T01:09:27.089Z,1102.73
2023-05-21T01:10:27.111Z,1102.73
2023-05-21T01:11:27.063Z,1102.73
2023-05-21T01:12:27.057Z,1102.73
2023-05-21T01:13:27.038Z,1102.73
2023-05-21T01:14:27.028Z,1102.73
2023-05-21T01:15:27.034Z,1102.73
2023-05-21T01:16:27.037Z,1102.73
2023-05-21T01:17:26.990Z,1102.73
2023-05-21T01:18:27.029Z,1102.73
2023-05-21T01:19:27.126Z,1102.73
2023-05-21T01:20:26.957Z,1102.73
2023-05-21T01:21:26.949Z,1102.73
2023-05-21T01:22:26.915Z,1102.73
2023-05-21T01:23:26.907Z,1102.73
2023-05-21T01:24:26.902Z,1102.73
2023-05-21T01:25:26.871Z,1102.73
2023-05-21T01:26:26.894Z,1102.73
2023-05-21T01:27:29.893Z,1102.73
2023-05-21T01:28:30.051Z,1102.73
2023-05-21T01:29:26.818Z,1102.73
2023-05-21T01:30:26.813Z,1102.73
2023-05-21T01:31:26.789Z,1102.73
2023-05-21T01:32:26.834Z,1102.73
2023-05-21T01:33:26.968Z,1102.73
2023-05-21T01:34:26.765Z,1102.73
2023-05-21T01:35:26.754Z,1102.73
2023-05-21T01:36:26.784Z,1102.73
2023-05-21T01:37:26.739Z,1102.73
2023-05-21T01:38:26.702Z,1102.73
2023-05-21T01:39:26.713Z,1102.73
2023-05-21T01:40:26.671Z,1102.73
2023-05-21T01:41:26.655Z,1102.73
2023-05-21T01:42:26.673Z,1102.73
2023-05-21T01:43:26.648Z,1101.46
2023-05-21T01:44:26.650Z,1102.73
2023-05-21T01:45:26.601Z,1102.73
2023-05-21T01:46:26.632Z,1102.73
2023-05-21T01:47:29.650Z,1101.46
2023-05-21T01:48:29.559Z,1101.46
2023-05-21T01:49:26.559Z,1102.73
2023-05-21T01:50:26.532Z,1102.73
2023-05-21T01:51:26.532Z,1102.73
2023-05-21T01:52:26.541Z,1102.73
2023-05-21T01:53:26.502Z,1101.46
2023-05-21T01:54:26.509Z,1101.46
2023-05-21T01:55:26.475Z,1101.46
2023-05-21T01:56:26.484Z,1102.73
2023-05-21T01:57:26.448Z,1101.46
2023-05-21T01:58:26.416Z,1101.46
2023-05-21T01:59:26.435Z,1101.46
2023-05-21T02:00:26.422Z,1101.46
2023-05-21T02:01:26.403Z,1101.46
2023-05-21T02:02:26.450Z,1101.46
2023-05-21T02:03:26.536Z,1101.46
2023-05-21T02:04:26.367Z,1101.46
2023-05-21T02:05:26.336Z,1101.46
2023-05-21T02:06:26.337Z,1101.46
2023-05-21T02:07:29.294Z,1101.46
2023-05-21T02:08:29.276Z,1101.46
2023-05-21T02:09:26.273Z,1101.46
2023-05-21T02:10:26.251Z,1101.46
2023-05-21T02:11:26.259Z,1101.46
2023-05-21T02:12:26.241Z,1101.46
2023-05-21T02:13:26.961Z,1101.46
2023-05-21T02:14:26.193Z,1101.46
2023-05-21T02:15:26.193Z,1101.46
2023-05-21T02:16:26.274Z,1101.46
2023-05-21T02:17:26.214Z,1101.46
2023-05-21T02:18:26.139Z,1101.46
2023-05-21T02:19:26.224Z,1101.46
2023-05-21T02:20:26.113Z,1101.46
2023-05-21T02:21:26.106Z,1101.46
2023-05-21T02:22:26.100Z,1101.46
2023-05-21T02:23:26.076Z,1101.46
2023-05-21T02:24:26.082Z,1101.46
2023-05-21T02:25:26.057Z,1101.46
2023-05-21T02:26:26.032Z,1101.46
2023-05-21T02:27:29.044Z,1101.46
2023-05-21T02:28:28.997Z,1101.46
2023-05-21T02:29:26.014Z,1101.46
2023-05-21T02:30:25.983Z,1101.46
2023-05-21T02:31:25.958Z,1101.46
2023-05-21T02:32:26.037Z,1101.46
2023-05-21T02:33:25.928Z,1101.46
2023-05-21T02:34:26.088Z,1101.46
2023-05-21T02:35:25.948Z,1101.46
2023-05-21T02:36:25.890Z,1101.46
2023-05-21T02:37:25.868Z,1101.46
2023-05-21T02:38:25.881Z,1101.46
2023-05-21T02:39:25.854Z,1101.46
2023-05-21T02:40:25.826Z,1101.46
2023-05-21T02:41:25.839Z,1101.46
2023-05-21T02:42:25.800Z,1101.46
2023-05-21T02:43:25.816Z,1101.46
2023-05-21T02:44:25.770Z,1101.46
2023-05-21T02:45:25.791Z,1101.46
2023-05-21T02:46:25.860Z,1101.46
2023-05-21T02:47:28.818Z,1101.46
2023-05-21T02:48:28.714Z,1101.46
2023-05-21T02:49:25.700Z,1101.46
2023-05-21T02:50:25.676Z,1101.46
2023-05-21T02:51:25.694Z,1101.46
2023-05-21T02:52:25.648Z,1101.46
2023-05-21T02:53:25.646Z,1101.46
2023-05-21T02:54:25.631Z,1101.46
2023-05-21T02:55:25.613Z,1101.46
2023-05-21T02:56:25.616Z,1101.46
2023-05-21T02:57:25.605Z,1101.46
2023-05-21T02:58:25.587Z,1101.46
2023-05-21T02:59:25.550Z,1101.46
2023-05-21T03:00:25.552Z,1101.46
2023-05-21T03:01:25.543Z,1101.46
2023-05-21T03:02:25.583Z,1101.46
2023-05-21T03:03:25.687Z,1101.46
2023-05-21T03:04:25.477Z,1101.46
2023-05-21T03:05:25.469Z,1101.46
2023-05-21T03:06:25.450Z,1101.46
2023-05-21T03:07:28.448Z,1101.46
2023-05-21T03:08:28.444Z,1101.46
2023-05-21T03:09:25.422Z,1101.46
2023-05-21T03:10:25.388Z,1101.46
2023-05-21T03:11:25.386Z,1101.46
2023-05-21T03:12:25.359Z,1101.46
2023-05-21T03:13:25.425Z,1101.46
2023-05-21T03:14:25.329Z,1101.46
2023-05-21T03:15:25.342Z,1101.46
2023-05-21T03:16:25.331Z,1101.46
2023-05-21T03:17:25.314Z,1101.46
2023-05-21T03:18:25.305Z,1101.46
2023-05-21T03:19:25.405Z,1101.46
2023-05-21T03:20:25.250Z,1101.46
2023-05-21T03:21:25.226Z,1101.46
2023-05-21T03:22:25.254Z,1101.46
2023-05-21T03:23:25.256Z,1101.46
2023-05-21T03:24:25.199Z,1101.46
2023-05-21T03:25:25.410Z,1101.46
2023-05-21T03:26:25.155Z,1101.46
2023-05-21T03:27:28.150Z,1101.46
2023-05-21T03:28:28.160Z,1101.46
2023-05-21T03:29:25.143Z,1101.46
2023-05-21T03:30:25.098Z,1101.46
2023-05-21T03:31:25.203Z,1101.46
2023-05-21T03:32:25.213Z,1101.46
2023-05-21T03:33:25.060Z,1101.46
2023-05-21T03:34:25.082Z,1101.46
2023-05-21T03:35:25.052Z,1101.46
2023-05-21T03:36:25.029Z,1101.46
2023-05-21T03:37:25.011Z,1101.46
2023-05-21T03:38:24.995Z,1101.46
2023-05-21T03:39:24.978Z,1101.46
2023-05-21T03:40:24.985Z,1101.46
2023-05-21T03:41:24.946Z,1101.46
2023-05-21T03:42:24.931Z,1101.46
2023-05-21T03:43:24.921Z,1101.46
2023-05-21T03:44:24.899Z,1101.46
2023-05-21T03:45:24.917Z,1101.46
2023-05-21T03:46:24.896Z,1101.46
2023-05-21T03:47:27.954Z,1101.46
2023-05-21T03:48:27.848Z,1101.46
2023-05-21T03:49:24.830Z,1101.46
2023-05-21T03:50:24.814Z,1101.46
2023-05-21T03:51:24.831Z,1101.46
2023-05-21T03:52:24.797Z,1101.46
2023-05-21T03:53:24.785Z,1101.46
2023-05-21T03:54:24.765Z,1101.46
2023-05-21T03:55:24.797Z,1101.46
2023-05-21T03:56:24.725Z,1101.46
2023-05-21T03:57:24.725Z,1101.46
2023-05-21T03:58:24.702Z,1101.46
2023-05-21T03:59:24.695Z,1101.46
2023-05-21T04:00:24.661Z,1101.46
2023-05-21T04:01:24.692Z,1101.46
2023-05-21T04:02:24.771Z,1101.46
2023-05-21T04:03:24.791Z,1101.46
2023-05-21T04:04:24.638Z,1101.46
2023-05-21T04:05:24.605Z,1101.46
2023-05-21T04:06:24.588Z,1101.46
2023-05-21T04:07:27.579Z,1101.46
2023-05-21T04:08:27.594Z,1101.46
2023-05-21T04:09:24.550Z,1101.46
2023-05-21T04:10:24.525Z,1101.46
2023-05-21T04:11:24.517Z,1101.46
2023-05-21T04:12:24.497Z,1101.46
2023-05-21T04:13:24.490Z,1101.46
2023-05-21T04:14:24.518Z,1101.46
2023-05-21T04:15:24.452Z,1101.46
2023-05-21T04:16:24.556Z,1101.46
2023-05-21T04:17:24.473Z,1101.46
2023-05-21T04:18:24.416Z,1101.46
2023-05-21T04:19:24.449Z,1101.46
2023-05-21T04:20:24.404Z,1101.46
2023-05-21T04:21:24.372Z,1101.46
2023-05-21T04:22:24.349Z,1101.46
2023-05-21T04:23:24.344Z,1101.46
2023-05-21T04:24:24.322Z,1101.46
2023-05-21T04:25:24.341Z,1101.46
2023-05-21T04:26:24.291Z,1101.46
2023-05-21T04:27:27.285Z,1101.46
2023-05-21T04:28:27.270Z,1101.46
2023-05-21T04:29:24.253Z,1101.46
2023-05-21T04:30:24.301Z,1101.46
2023-05-21T04:31:24.234Z,1101.46
2023-05-21T04:32:24.241Z,1101.46
2023-05-21T04:33:24.193Z,1101.46
2023-05-21T04:34:24.179Z,1101.46
2023-05-21T04:35:24.180Z,1101.46
2023-05-21T04:36:24.177Z,1101.46
2023-05-21T04:37:24.142Z,1101.46
2023-05-21T04:38:24.122Z,1101.46
2023-05-21T04:39:24.109Z,1101.46
2023-05-21T04:40:24.095Z,1102.73
2023-05-21T04:41:24.112Z,1102.73
2023-05-21T04:42:24.064Z,1102.73
2023-05-21T04:43:24.057Z,1102.73
2023-05-21T04:44:24.039Z,1102.73
2023-05-21T04:45:24.029Z,1102.73
2023-05-21T04:46:24.106Z,1102.73
2023-05-21T04:47:27.027Z,1102.73
2023-05-21T04:48:27.250Z,1102.73
2023-05-21T04:49:23.971Z,1102.73
2023-05-21T04:50:23.950Z,1102.73
2023-05-21T04:51:23.973Z,1102.73
2023-05-21T04:52:23.939Z,1102.73
2023-05-21T04:53:23.920Z,1102.73
2023-05-21T04:54:23.910Z,1102.73
2023-05-21T04:55:23.892Z,1102.73
2023-05-21T04:56:23.873Z,1102.73
2023-05-21T04:57:23.890Z,1102.73
2023-05-21T04:58:23.863Z,1102.73
2023-05-21T04:59:23.833Z,1102.73
2023-05-21T05:00:23.820Z,1102.73
2023-05-21T05:01:23.907Z,1102.73
2023-05-21T05:02:23.877Z,1102.73
2023-05-21T05:03:23.938Z,1102.73
2023-05-21T05:04:23.766Z,1102.73
2023-05-21T05:05:23.792Z,1102.73
2023-05-21T05:06:23.743Z,1102.73
2023-05-21T05:07:26.745Z,1102.73
2023-05-21T05:08:26.763Z,1102.73
2023-05-21T05:09:23.703Z,1102.73
2023-05-21T05:10:23.680Z,1102.73
2023-05-21T05:11:23.667Z,1102.73
2023-05-21T05:12:23.657Z,1102.73
2023-05-21T05:13:23.666Z,1102.73
2023-05-21T05:14:23.638Z,1102.73
2023-05-21T05:15:23.665Z,1102.73
2023-05-21T05:16:23.635Z,1102.73
2023-05-21T05:17:23.632Z,1102.73
2023-05-21T05:18:23.610Z,1102.73
2023-05-21T05:19:23.656Z,1102.73
2023-05-21T05:20:23.584Z,1102.73
2023-05-21T05:21:23.537Z,1102.73
2023-05-21T05:22:23.519Z,1102.73
2023-05-21T05:23:23.555Z,1102.73
2023-05-21T05:24:23.500Z,1102.73
2023-05-21T05:25:23.484Z,1102.73
2023-05-21T05:26:23.501Z,1102.73
2023-05-21T05:27:26.445Z,1102.73
2023-05-21T05:28:26.473Z,1102.73
2023-05-21T05:29:23.466Z,1102.73
2023-05-21T05:30:23.414Z,1102.73
2023-05-21T05:31:23.504Z,1102.73
2023-05-21T05:32:23.405Z,1102.73
2023-05-21T05:33:23.395Z,1102.73
2023-05-21T05:34:23.354Z,1102.73
2023-05-21T05:35:23.336Z,1102.73
2023-05-21T05:36:23.324Z,1102.73
2023-05-21T05:37:23.319Z,1102.73
2023-05-21T05:38:23.328Z,1102.73
2023-05-21T05:39:23.309Z,1102.73
2023-05-21T05:40:23.275Z,1102.73
2023-05-21T05:41:23.255Z,1102.73
2023-05-21T05:42:23.259Z,1102.73
2023-05-21T05:43:23.256Z,1096.50
2023-05-21T05:44:23.216Z,1104.00
2023-05-21T05:45:23.199Z,1099.41
2023-05-21T05:46:23.312Z,1102.73
2023-05-21T05:47:26.221Z,1102.73
2023-05-21T05:48:26.197Z,1101.95
2023-05-21T05:49:23.168Z,1095.70
2023-05-21T05:50:23.165Z,1087.99
2023-05-21T05:51:23.117Z,1092.46
2023-05-21T05:52:23.140Z,1093.10
2023-05-21T05:53:23.093Z,1103.03
2023-05-21T05:54:23.083Z,1102.73
2023-05-21T05:55:23.060Z,1102.73
2023-05-21T05:56:23.070Z,1102.73
2023-05-21T05:57:23.059Z,1102.73
2023-05-21T05:58:23.031Z,1102.73
2023-05-21T05:59:23.007Z,1102.73
2023-05-21T06:00:22.997Z,1102.73
2023-05-21T06:01:22.985Z,1102.73
2023-05-21T06:02:23.151Z,1102.73
2023-05-21T06:03:23.031Z,1102.73
2023-05-21T06:04:22.983Z,1102.73
2023-05-21T06:05:22.962Z,1102.73
2023-05-21T06:06:23.001Z,1102.73
2023-05-21T06:07:25.935Z,1102.73
2023-05-21T06:08:25.886Z,1102.73
2023-05-21T06:09:22.864Z,1102.73
2023-05-21T06:10:22.854Z,1102.73
2023-05-21T06:11:29.541Z,1102.73
2023-05-21T06:12:22.831Z,1102.73
2023-05-21T06:13:22.846Z,1102.73
2023-05-21T06:14:22.799Z,1102.73
2023-05-21T06:15:22.774Z,1102.73
2023-05-21T06:16:22.846Z,1102.73
2023-05-21T06:17:22.900Z,1102.73
2023-05-21T06:18:22.750Z,1102.73
2023-05-21T06:19:23.120Z,1102.73
2023-05-21T06:20:22.728Z,1102.73
2023-05-21T06:21:22.696Z,1102.73
2023-05-21T06:22:24.906Z,1102.73
2023-05-21T06:23:22.698Z,1102.73
2023-05-21T06:24:22.713Z,1102.73
2023-05-21T06:25:22.644Z,1102.73
2023-05-21T06:26:22.629Z,1102.73
2023-05-21T06:27:25.637Z,1102.73
2023-05-21T06:28:25.599Z,1102.73
2023-05-21T06:29:22.586Z,1102.73
2023-05-21T06:30:22.609Z,1102.73
2023-05-21T06:31:22.646Z,1102.73
2023-05-21T06:32:22.700Z,1102.73
2023-05-21T06:33:22.664Z,1102.73
2023-05-21T06:34:22.571Z,1102.73
2023-05-21T06:35:22.506Z,1100.96
2023-05-21T06:36:22.492Z,1096.31
2023-05-21T06:37:23.812Z,1100.23
2023-05-21T06:38:22.466Z,1098.63
2023-05-21T06:39:22.454Z,1097.24
2023-05-21T06:40:22.467Z,1102.24
2023-05-21T06:41:22.413Z,1102.73
2023-05-21T06:42:22.414Z,1100.08
2023-05-21T06:43:22.401Z,1095.49
2023-05-21T06:44:22.381Z,1097.86
2023-05-21T06:45:22.361Z,1089.34
2023-05-21T06:46:22.509Z,1088.02
2023-05-21T06:47:25.402Z,1088.49
2023-05-21T06:48:25.352Z,1096.26
2023-05-21T06:49:22.307Z,1096.12
2023-05-21T06:50:22.302Z,1090.58
2023-05-21T06:51:22.302Z,1086.26
2023-05-21T06:52:22.261Z,1089.38
2023-05-21T06:53:22.248Z,1098.44
2023-05-21T06:54:22.239Z,1097.74
2023-05-21T06:55:22.220Z,1092.99
2023-05-21T06:56:22.262Z,1095.43
2023-05-21T06:57:22.197Z,1087.48
2023-05-21T06:58:22.179Z,1069.79
2023-05-21T06:59:22.164Z,1055.78
2023-05-21T07:00:22.161Z,1068.20
2023-05-21T07:01:22.171Z,1079.52
2023-05-21T07:02:22.288Z,1085.77
2023-05-21T07:03:22.279Z,1082.48
2023-05-21T07:04:22.099Z,1069.71
2023-05-21T07:05:22.088Z,1056.78
2023-05-21T07:06:22.075Z,1055.03
2023-05-21T07:07:25.098Z,1068.96
2023-05-21T07:08:25.172Z,1087.75
2023-05-21T07:09:22.056Z,1089.86
2023-05-21T07:10:22.013Z,1087.93
2023-05-21T07:11:21.999Z,1087.77
2023-05-21T07:12:21.982Z,1084.81
2023-05-21T07:13:21.980Z,1070.04
2023-05-21T07:14:21.998Z,1080.31
2023-05-21T07:15:21.946Z,1076.32
2023-05-21T07:16:21.948Z,1064.86
2023-05-21T07:17:21.930Z,1065.03
2023-05-21T07:18:21.903Z,1073.51
2023-05-21T07:19:21.982Z,1064.07
2023-05-21T07:20:21.872Z,1068.34
2023-05-21T07:21:21.859Z,1052.52
2023-05-21T07:22:21.847Z,1044.24
2023-05-21T07:23:21.828Z,1064.37
2023-05-21T07:24:21.849Z,1057.45
2023-05-21T07:25:21.801Z,1059.90
2023-05-21T07:26:21.789Z,1067.65
2023-05-21T07:27:26.079Z,1053.48
2023-05-21T07:28:24.765Z,1047.92
2023-05-21T07:29:21.770Z,1049.07
2023-05-21T07:30:21.739Z,1048.52
2023-05-21T07:31:21.757Z,1053.62
2023-05-21T07:32:21.771Z,1056.74
2023-05-21T07:33:21.686Z,1051.89
2023-05-21T07:34:21.711Z,1026.20
2023-05-21T07:35:21.661Z,1013.06
2023-05-21T07:36:21.655Z,1008.71
2023-05-21T07:37:21.658Z,994.21
2023-05-21T07:38:21.626Z,984.80
2023-05-21T07:39:21.642Z,981.77
2023-05-21T07:40:21.657Z,967.02
2023-05-21T07:41:21.588Z,967.96
2023-05-21T07:42:21.581Z,968.40
2023-05-21T07:43:21.562Z,974.29
2023-05-21T07:44:21.573Z,969.07
2023-05-21T07:45:21.561Z,980.19
2023-05-21T07:46:21.568Z,977.31
2023-05-21T07:47:24.539Z,961.70
2023-05-21T07:48:24.502Z,940.97
2023-05-21T07:49:21.509Z,958.66
2023-05-21T07:50:21.472Z,970.84
2023-05-21T07:51:21.482Z,980.13
2023-05-21T07:52:21.524Z,978.90
2023-05-21T07:53:21.437Z,960.01
2023-05-21T07:54:21.430Z,957.23
2023-05-21T07:55:21.415Z,935.41
2023-05-21T07:56:21.406Z,923.70
2023-05-21T07:57:21.409Z,892.09
2023-05-21T07:58:21.364Z,907.88
2023-05-21T07:59:21.353Z,923.43
2023-05-21T08:00:21.352Z,936.90
2023-05-21T08:01:21.328Z,918.61
2023-05-21T08:02:21.518Z,892.09
2023-05-21T08:03:21.379Z,861.76
2023-05-21T08:04:21.426Z,859.24
2023-05-21T08:05:21.282Z,852.92
2023-05-21T08:06:21.259Z,854.18
2023-05-21T08:07:24.267Z,833.99
2023-05-21T08:08:24.239Z,874.40
2023-05-21T08:09:21.216Z,847.87
2023-05-21T08:10:21.204Z,825.16
2023-05-21T08:11:21.182Z,821.37
2023-05-21T08:12:21.200Z,827.68
2023-05-21T08:13:21.153Z,866.81
2023-05-21T08:14:21.143Z,863.03
2023-05-21T08:15:21.123Z,884.51
2023-05-21T08:16:21.172Z,868.08
2023-05-21T08:17:21.139Z,863.03
2023-05-21T08:18:21.083Z,864.29
2023-05-21T08:19:21.095Z,876.92
2023-05-21T08:20:21.056Z,860.50
2023-05-21T08:21:21.040Z,860.50
2023-05-21T08:22:21.057Z,887.35
2023-05-21T08:23:21.030Z,870.60
2023-05-21T08:24:21.023Z,866.81
2023-05-21T08:25:20.973Z,861.76
2023-05-21T08:26:20.961Z,857.97
2023-05-21T08:27:23.975Z,839.04
2023-05-21T08:28:23.947Z,808.76
2023-05-21T08:29:20.913Z,827.68
2023-05-21T08:30:20.929Z,846.61
2023-05-21T08:31:20.920Z,851.66
2023-05-21T08:32:20.907Z,846.61
2023-05-21T08:33:21.488Z,823.90
2023-05-21T08:34:20.849Z,797.42
2023-05-21T08:35:20.836Z,807.50
2023-05-21T08:36:20.831Z,804.98
2023-05-21T08:37:20.800Z,831.47
2023-05-21T08:38:20.828Z,839.04
2023-05-21T08:39:20.782Z,811.28
2023-05-21T08:40:20.942Z,781.04
2023-05-21T08:41:20.760Z,767.19
2023-05-21T08:42:35.226Z,752.09
2023-05-21T08:43:21.740Z,731.96
2023-05-21T08:44:20.712Z,720.65
2023-05-21T08:45:20.721Z,710.60
2023-05-21T08:46:20.771Z,713.11
2023-05-21T08:47:23.691Z,716.88
2023-05-21T08:48:23.657Z,718.14
2023-05-21T08:49:20.632Z,752.09
2023-05-21T08:50:20.656Z,763.41
2023-05-21T08:51:20.633Z,726.93
2023-05-21T08:52:20.604Z,709.34
2023-05-21T08:53:28.097Z,682.97
2023-05-21T08:54:21.568Z,675.44
2023-05-21T08:55:20.556Z,695.52
2023-05-21T08:56:20.561Z,720.65
2023-05-21T08:57:20.523Z,719.39
2023-05-21T08:58:20.514Z,705.57
2023-05-21T08:59:20.501Z,693.01
2023-05-21T09:00:20.545Z,731.96
2023-05-21T09:01:20.594Z,739.51
2023-05-21T09:02:20.453Z,721.91
2023-05-21T09:03:20.519Z,726.93
2023-05-21T09:04:21.688Z,723.16
2023-05-21T09:05:20.409Z,709.34
2023-05-21T09:06:20.441Z,682.97
2023-05-21T09:07:23.407Z,705.57
2023-05-21T09:08:23.379Z,690.50
2023-05-21T09:09:20.356Z,670.42
2023-05-21T09:10:20.473Z,655.37
2023-05-21T09:11:20.361Z,676.70
2023-05-21T09:12:20.359Z,710.60
2023-05-21T09:13:20.352Z,740.77
2023-05-21T09:14:20.285Z,748.31
2023-05-21T09:15:20.278Z,772.23
2023-05-21T09:16:20.349Z,747.06
2023-05-21T09:17:20.252Z,743.28
2023-05-21T09:18:20.235Z,753.35
2023-05-21T09:19:20.342Z,753.35
2023-05-21T09:20:20.261Z,719.39
2023-05-21T09:21:20.197Z,696.78
2023-05-21T09:22:20.179Z,691.76
2023-05-21T09:23:20.197Z,677.95
2023-05-21T09:24:20.155Z,670.42
2023-05-21T09:25:20.143Z,689.25
2023-05-21T09:26:20.124Z,695.52
2023-05-21T09:27:23.112Z,701.80
2023-05-21T09:28:23.126Z,696.78
2023-05-21T09:29:20.090Z,676.70
2023-05-21T09:30:24.670Z,674.19
2023-05-21T09:31:21.084Z,674.19
2023-05-21T09:32:20.041Z,675.44
2023-05-21T09:33:20.064Z,669.17
2023-05-21T09:34:20.013Z,642.83
2023-05-21T09:35:20.003Z,657.88
2023-05-21T09:36:20.034Z,649.10
2023-05-21T09:37:27.146Z,636.57
2023-05-21T09:38:21.023Z,645.34
2023-05-21T09:39:19.952Z,637.82
2023-05-21T09:40:19.927Z,641.58
2023-05-21T09:41:21.857Z,626.54
2023-05-21T09:42:19.905Z,629.05
2023-05-21T09:43:19.897Z,612.77
2023-05-21T09:44:19.907Z,592.74
2023-05-21T09:45:19.916Z,595.24
2023-05-21T09:46:19.898Z,621.53
2023-05-21T09:47:22.878Z,644.09
2023-05-21T09:48:22.824Z,662.89
2023-05-21T09:49:19.811Z,646.59
2023-05-21T09:50:19.844Z,627.80
2023-05-21T09:51:19.834Z,611.52
2023-05-21T09:52:19.771Z,640.33
2023-05-21T09:53:19.750Z,619.03
2023-05-21T09:54:19.792Z,605.26
2023-05-21T09:55:19.784Z,592.74
2023-05-21T09:56:19.795Z,585.24
2023-05-21T09:57:19.809Z,586.49
2023-05-21T09:58:19.702Z,602.75
2023-05-21T09:59:19.676Z,624.04
2023-05-21T10:00:19.660Z,635.31
2023-05-21T10:01:20.523Z,637.82
2023-05-21T10:02:19.718Z,614.02
2023-05-21T10:03:19.656Z,581.48
2023-05-21T10:04:19.656Z,578.98
2023-05-21T10:05:19.589Z,563.78
2023-05-21T10:06:19.578Z,556.82
2023-05-21T10:07:22.667Z,545.49
2023-05-21T10:08:22.550Z,554.04
2023-05-21T10:09:19.531Z,531.82
2023-05-21T10:10:19.526Z,526.99
2023-05-21T10:11:19.515Z,556.82
2023-05-21T10:12:19.527Z,556.91
2023-05-21T10:13:19.507Z,563.87
2023-05-21T10:14:19.473Z,571.48
2023-05-21T10:15:19.449Z,566.48
2023-05-21T10:16:19.456Z,590.24
2023-05-21T10:17:19.446Z,578.98
2023-05-21T10:18:19.430Z,583.99
2023-05-21T10:19:19.401Z,563.81
2023-05-21T10:20:19.380Z,552.80
2023-05-21T10:21:19.370Z,541.04
2023-05-21T10:22:19.348Z,544.11
2023-05-21T10:23:19.381Z,538.03
2023-05-21T10:24:19.324Z,544.05
2023-05-21T10:25:19.319Z,571.48
2023-05-21T10:26:19.300Z,563.74
2023-05-21T10:27:22.288Z,559.64
2023-05-21T10:28:22.325Z,556.96
2023-05-21T10:29:19.811Z,546.86
2023-05-21T10:30:19.297Z,542.61
2023-05-21T10:31:19.234Z,525.78
2023-05-21T10:32:19.337Z,541.07
2023-05-21T10:33:19.327Z,530.50
2023-05-21T10:34:19.252Z,521.90
2023-05-21T10:35:19.174Z,517.37
2023-05-21T10:36:19.241Z,533.43
2023-05-21T10:37:19.148Z,535.22
2023-05-21T10:38:19.166Z,503.38
2023-05-21T10:39:19.123Z,488.86
2023-05-21T10:40:19.124Z,486.54
2023-05-21T10:41:19.212Z,487.05
2023-05-21T10:42:19.173Z,503.94
2023-05-21T10:43:19.062Z,488.59
2023-05-21T10:44:19.129Z,466.31
2023-05-21T10:45:19.063Z,451.49
2023-05-21T10:46:19.118Z,468.30
2023-05-21T10:47:22.028Z,490.64
2023-05-21T10:48:22.005Z,498.19
2023-05-21T10:49:18.993Z,480.84
2023-05-21T10:50:18.965Z,463.14
2023-05-21T10:51:19.008Z,458.51
2023-05-21T10:52:18.946Z,449.10
2023-05-21T10:53:18.924Z,449.10
2023-05-21T10:54:19.070Z,461.53
2023-05-21T10:55:18.937Z,467.83
2023-05-21T10:56:18.881Z,467.95
2023-05-21T10:57:18.908Z,468.71
2023-05-21T10:58:18.916Z,467.63
2023-05-21T10:59:18.844Z,466.14
2023-05-21T11:00:18.824Z,448.11
2023-05-21T11:01:18.834Z,448.36
2023-05-21T11:02:18.859Z,425.09
2023-05-21T11:03:18.915Z,437.72
2023-05-21T11:04:18.775Z,445.34
2023-05-21T11:05:18.782Z,434.10
2023-05-21T11:06:18.742Z,424.42
2023-05-21T11:07:21.728Z,416.56
2023-05-21T11:08:21.761Z,431.94
2023-05-21T11:09:18.715Z,445.75
2023-05-21T11:10:18.843Z,448.19
2023-05-21T11:11:18.678Z,425.55
2023-05-21T11:12:18.817Z,414.48
2023-05-21T11:13:18.686Z,412.24
2023-05-21T11:14:20.869Z,428.37
2023-05-21T11:15:18.695Z,421.65
2023-05-21T11:16:18.677Z,412.19
2023-05-21T11:17:18.668Z,416.29
2023-05-21T11:18:18.589Z,402.30
2023-05-21T11:19:18.634Z,398.14
2023-05-21T11:20:18.660Z,393.40
2023-05-21T11:21:18.584Z,391.72
2023-05-21T11:22:18.527Z,389.97
2023-05-21T11:23:18.692Z,397.28
2023-05-21T11:24:18.495Z,389.12
2023-05-21T11:25:18.518Z,391.93
2023-05-21T11:26:18.470Z,399.88
2023-05-21T11:27:21.457Z,400.03
2023-05-21T11:28:21.461Z,399.70
2023-05-21T11:29:18.425Z,389.44
2023-05-21T11:30:18.471Z,393.87
2023-05-21T11:31:18.437Z,398.72
2023-05-21T11:32:18.383Z,390.64
2023-05-21T11:33:18.390Z,397.68
2023-05-21T11:34:18.359Z,400.01
2023-05-21T11:35:18.350Z,408.58
2023-05-21T11:36:18.365Z,424.04
2023-05-21T11:37:18.349Z,414.33
2023-05-21T11:38:18.425Z,394.21
2023-05-21T11:39:18.300Z,391.89
2023-05-21T11:40:18.325Z,390.03
2023-05-21T11:41:18.271Z,385.68
2023-05-21T11:42:18.253Z,383.07
2023-05-21T11:43:18.274Z,368.61
2023-05-21T11:44:18.234Z,351.92
2023-05-21T11:45:18.221Z,336.20
2023-05-21T11:46:18.234Z,338.83
2023-05-21T11:47:21.255Z,364.58
2023-05-21T11:48:21.210Z,371.49
2023-05-21T11:49:18.173Z,355.02
2023-05-21T11:50:18.152Z,365.16
2023-05-21T11:51:18.136Z,355.76
2023-05-21T11:52:18.133Z,360.49
2023-05-21T11:53:18.117Z,361.75
2023-05-21T11:54:18.133Z,350.51
2023-05-21T11:55:18.078Z,363.59
2023-05-21T11:56:18.077Z,367.35
2023-05-21T11:57:18.055Z,363.52
2023-05-21T11:58:18.040Z,349.64
2023-05-21T11:59:18.914Z,355.34
2023-05-21T12:00:18.062Z,339.60
2023-05-21T12:01:17.999Z,348.45
2023-05-21T12:02:18.017Z,347.97
2023-05-21T12:03:18.145Z,344.15
2023-05-21T12:04:17.976Z,347.87
2023-05-21T12:05:17.943Z,342.39
2023-05-21T12:06:17.990Z,325.04
2023-05-21T12:07:20.906Z,344.83
2023-05-21T12:08:20.896Z,349.52
2023-05-21T12:09:17.885Z,346.41
2023-05-21T12:10:17.900Z,339.93
2023-05-21T12:11:17.871Z,336.20
2023-05-21T12:12:17.837Z,345.02
2023-05-21T12:13:17.839Z,333.15
2023-05-21T12:14:17.845Z,348.18